createdAt,value
2019-04-10T00:00:10.650Z,10.70
2019-04-10T00:02:39.491Z,10.60
2019-04-10T00:05:09.712Z,10.60
2019-04-10T00:07:38.237Z,10.60
2019-04-10T00:10:07.752Z,10.60
2019-04-10T00:12:36.307Z,10.60
2019-04-10T00:15:05.788Z,10.60
2019-04-10T00:17:35.345Z,10.60
2019-04-10T00:20:05.179Z,10.60
2019-04-10T00:22:34.047Z,10.60
2019-04-10T00:25:02.619Z,10.70
2019-04-10T00:27:31.057Z,10.70
2019-04-10T00:30:00.573Z,10.60
2019-04-10T00:32:29.923Z,10.70
2019-04-10T00:34:58.549Z,10.60
2019-04-10T00:37:30.302Z,10.60
2019-04-10T00:39:57.824Z,10.60
2019-04-10T00:42:27.421Z,10.60
2019-04-10T00:44:56.397Z,10.50
2019-04-10T00:47:24.900Z,10.50
2019-04-10T00:49:53.688Z,10.50
2019-04-10T00:52:22.244Z,10.40
2019-04-10T00:54:51.061Z,10.40
2019-04-10T00:57:19.585Z,10.40
2019-04-10T00:59:48.431Z,10.40
2019-04-10T01:02:16.973Z,10.50
2019-04-10T01:04:45.407Z,10.40
2019-04-10T01:07:14.770Z,10.40
2019-04-10T01:09:43.744Z,10.40
2019-04-10T01:12:12.340Z,10.30
2019-04-10T01:14:40.775Z,10.20
2019-04-10T01:17:09.210Z,10.20
2019-04-10T01:19:37.771Z,10.20
2019-04-10T01:22:06.545Z,10.20
2019-04-10T01:24:35.520Z,10.30
2019-04-10T01:27:04.091Z,10.30
2019-04-10T01:29:33.527Z,10.30
2019-04-10T01:32:02.045Z,10.30
2019-04-10T01:34:31.518Z,10.30
2019-04-10T01:37:00.620Z,10.20
2019-04-10T01:39:30.749Z,10.20
2019-04-10T01:41:59.180Z,10.20
2019-04-10T01:44:27.608Z,10.30
2019-04-10T01:46:56.970Z,10.30
2019-04-10T01:49:25.976Z,10.30
2019-04-10T01:51:55.304Z,10.30
2019-04-10T01:54:24.651Z,10.40
2019-04-10T01:56:53.374Z,10.40
2019-04-10T01:59:23.616Z,10.40
2019-04-10T02:01:53.815Z,10.40
2019-04-10T02:04:22.777Z,10.30
2019-04-10T02:06:51.693Z,10.30
2019-04-10T02:09:21.416Z,10.40
2019-04-10T02:11:50.242Z,10.40
2019-04-10T02:14:18.746Z,10.30
2019-04-10T02:16:47.329Z,10.30
2019-04-10T02:19:16.352Z,10.30
2019-04-10T02:21:44.906Z,10.30
2019-04-10T02:24:13.336Z,10.20
2019-04-10T02:26:41.772Z,10.20
2019-04-10T02:29:11.267Z,10.20
2019-04-10T02:31:39.828Z,10.20
2019-04-10T02:34:09.443Z,10.20
2019-04-10T02:36:38.500Z,10.20
2019-04-10T02:39:17.803Z,10.10
2019-04-10T02:41:38.604Z,10.20
2019-04-10T02:44:07.917Z,10.20
2019-04-10T02:46:36.924Z,10.10
2019-04-10T02:49:06.226Z,10.20
2019-04-10T02:51:35.838Z,10.20
2019-04-10T02:54:05.194Z,10.20
2019-04-10T02:56:34.355Z,10.20
2019-04-10T02:59:02.973Z,10.20
2019-04-10T03:01:31.600Z,10.20
2019-04-10T03:04:01.306Z,10.30
2019-04-10T03:06:31.146Z,10.30
2019-04-10T03:09:14.608Z,10.30
2019-04-10T03:11:31.245Z,10.30
2019-04-10T03:14:01.388Z,10.30
2019-04-10T03:16:31.152Z,10.30
2019-04-10T03:18:59.718Z,10.30
2019-04-10T03:21:29.251Z,10.30
2019-04-10T03:23:57.996Z,10.30
2019-04-10T03:26:26.791Z,10.30
2019-04-10T03:28:56.235Z,10.30
2019-04-10T03:31:25.407Z,10.30
2019-04-10T03:34:16.861Z,10.30
2019-04-10T03:36:45.531Z,10.30
2019-04-10T03:39:15.234Z,10.30
2019-04-10T03:41:44.273Z,10.30
2019-04-10T03:44:12.814Z,10.30
2019-04-10T03:46:41.397Z,10.30
2019-04-10T03:49:09.827Z,10.30
2019-04-10T03:51:39.531Z,10.30
2019-04-10T03:54:08.943Z,10.30
2019-04-10T03:56:38.262Z,10.30
2019-04-10T03:59:08.281Z,10.30
2019-04-10T04:01:36.835Z,10.30
2019-04-10T04:04:05.272Z,10.20
2019-04-10T04:06:33.713Z,10.20
2019-04-10T04:09:07.783Z,10.20
2019-04-10T04:11:32.299Z,10.20
2019-04-10T04:14:00.877Z,10.20
2019-04-10T04:16:29.284Z,10.20
2019-04-10T04:18:57.716Z,10.20
2019-04-10T04:21:26.150Z,10.30
2019-04-10T04:23:55.767Z,10.20
2019-04-10T04:26:25.308Z,10.20
2019-04-10T04:28:53.868Z,10.20
2019-04-10T04:31:22.877Z,10.20
2019-04-10T04:33:51.315Z,10.20
2019-04-10T04:36:20.382Z,10.20
2019-04-10T04:38:49.183Z,10.20
2019-04-10T04:41:17.676Z,10.20
2019-04-10T04:43:47.609Z,10.20
2019-04-10T04:46:16.339Z,10.20
2019-04-10T04:48:45.341Z,10.20
2019-04-10T04:51:13.792Z,10.20
2019-04-10T04:53:42.244Z,10.30
2019-04-10T04:56:11.489Z,10.30
2019-04-10T04:58:39.964Z,10.30
2019-04-10T05:01:08.485Z,10.30
2019-04-10T05:03:37.564Z,10.30
2019-04-10T05:06:06.124Z,10.40
2019-04-10T05:08:34.633Z,10.30
2019-04-10T05:11:04.226Z,10.30
2019-04-10T05:13:32.828Z,10.30
2019-04-10T05:16:01.259Z,10.30
2019-04-10T05:18:29.696Z,10.40
2019-04-10T05:20:58.897Z,10.30
2019-04-10T05:23:27.328Z,10.40
2019-04-10T05:25:56.145Z,10.40
2019-04-10T05:28:24.676Z,10.40
2019-04-10T05:30:53.100Z,10.40
2019-04-10T05:33:22.509Z,10.40
2019-04-10T05:35:51.047Z,10.40
2019-04-10T05:38:20.673Z,10.40
2019-04-10T05:40:49.183Z,10.40
2019-04-10T05:43:17.704Z,10.40
2019-04-10T05:45:46.494Z,10.30
2019-04-10T05:48:15.326Z,10.30
2019-04-10T05:50:54.051Z,10.30
2019-04-10T05:53:14.177Z,10.30
2019-04-10T05:55:42.608Z,10.30
2019-04-10T05:58:11.298Z,10.30
2019-04-10T06:00:40.920Z,10.30
2019-04-10T06:03:09.415Z,10.30
2019-04-10T06:05:38.281Z,10.30
2019-04-10T06:08:07.797Z,10.30
2019-04-10T06:10:36.376Z,10.40
2019-04-10T06:13:04.852Z,10.40
2019-04-10T06:15:33.298Z,10.40
2019-04-10T06:18:02.774Z,10.40
2019-04-10T06:20:31.480Z,10.40
2019-04-10T06:23:01.176Z,10.40
2019-04-10T06:25:31.660Z,10.40
2019-04-10T06:28:01.016Z,10.40
2019-04-10T06:30:32.826Z,10.40
2019-04-10T06:33:02.205Z,10.40
2019-04-10T06:35:30.731Z,10.40
2019-04-10T06:37:59.167Z,10.50
2019-04-10T06:40:29.072Z,10.50
2019-04-10T06:42:58.433Z,10.60
2019-04-10T06:45:28.043Z,10.60
2019-04-10T06:47:56.637Z,10.60
2019-04-10T06:50:25.076Z,10.70
2019-04-10T06:52:53.759Z,10.70
2019-04-10T06:55:23.604Z,10.70
2019-04-10T06:57:57.228Z,10.80
2019-04-10T07:00:23.015Z,10.80
2019-04-10T07:02:52.601Z,10.80
2019-04-10T07:05:21.966Z,10.90
2019-04-10T07:07:54.575Z,11.00
2019-04-10T07:10:28.557Z,11.00
2019-04-10T07:12:51.303Z,11.00
2019-04-10T07:15:22.708Z,11.10
2019-04-10T07:17:49.964Z,11.10
2019-04-10T07:20:20.627Z,11.10
2019-04-10T07:22:49.784Z,11.00
2019-04-10T07:25:18.239Z,11.00
2019-04-10T07:27:47.763Z,11.00
2019-04-10T07:30:17.376Z,11.10
2019-04-10T07:32:48.919Z,11.00
2019-04-10T07:35:19.578Z,11.00
2019-04-10T07:37:46.569Z,11.10
2019-04-10T07:40:16.329Z,11.10
2019-04-10T07:42:44.880Z,11.10
2019-04-10T07:45:14.092Z,11.10
2019-04-10T07:47:42.570Z,11.10
2019-04-10T07:50:12.233Z,11.20
2019-04-10T07:52:41.363Z,11.20
2019-04-10T07:55:10.411Z,11.20
2019-04-10T07:57:39.215Z,11.30
2019-04-10T08:00:09.670Z,11.30
2019-04-10T08:02:38.541Z,11.40
2019-04-10T08:05:08.215Z,11.50
2019-04-10T08:07:38.608Z,11.60
2019-04-10T08:10:07.964Z,11.70
2019-04-10T08:12:42.403Z,11.70
2019-04-10T08:15:07.291Z,11.90
2019-04-10T08:17:36.738Z,11.90
2019-04-10T08:20:06.468Z,11.90
2019-04-10T08:22:35.157Z,11.90
2019-04-10T08:25:06.403Z,11.90
2019-04-10T08:27:36.120Z,11.80
2019-04-10T08:30:06.051Z,11.90
2019-04-10T08:32:47.399Z,11.90
2019-04-10T08:35:06.980Z,11.90
2019-04-10T08:37:36.768Z,11.90
2019-04-10T08:40:09.487Z,11.90
2019-04-10T08:42:38.082Z,11.90
2019-04-10T08:45:07.097Z,11.80
2019-04-10T08:47:35.661Z,11.80
2019-04-10T08:50:05.829Z,11.70
2019-04-10T08:52:34.708Z,11.60
2019-04-10T08:55:03.849Z,11.60
2019-04-10T08:57:32.360Z,11.70
2019-04-10T09:00:00.788Z,11.70
2019-04-10T09:02:30.340Z,11.60
2019-04-10T09:04:59.447Z,11.70
2019-04-10T09:07:28.438Z,11.70
2019-04-10T09:09:57.024Z,11.70
2019-04-10T09:12:26.052Z,11.70
2019-04-10T09:14:54.573Z,11.70
2019-04-10T09:17:23.081Z,11.70
2019-04-10T09:19:52.115Z,11.70
2019-04-10T09:22:20.628Z,11.70
2019-04-10T09:24:49.059Z,11.70
2019-04-10T09:27:17.503Z,11.80
2019-04-10T09:29:46.518Z,11.80
2019-04-10T09:32:15.084Z,11.80
2019-04-10T09:34:45.600Z,11.80
2019-04-10T09:37:13.676Z,11.90
2019-04-10T09:39:43.395Z,11.90
2019-04-10T09:42:11.876Z,12.00
2019-04-10T09:44:40.303Z,12.10
2019-04-10T09:47:09.707Z,12.10
2019-04-10T09:49:43.171Z,12.20
2019-04-10T09:52:08.852Z,12.30
2019-04-10T09:54:38.276Z,12.30
2019-04-10T09:57:06.956Z,12.40
2019-04-10T09:59:36.851Z,12.50
2019-04-10T10:02:05.690Z,12.70
2019-04-10T10:04:34.119Z,12.90
2019-04-10T10:07:03.889Z,13.10
2019-04-10T10:09:32.536Z,13.10
2019-04-10T10:12:01.114Z,13.30
2019-04-10T10:14:31.935Z,13.30
2019-04-10T10:17:00.185Z,13.30
2019-04-10T10:19:28.731Z,13.40
2019-04-10T10:21:57.175Z,13.40
2019-04-10T10:24:26.699Z,13.40
2019-04-10T10:26:55.651Z,13.30
2019-04-10T10:29:24.227Z,13.30
2019-04-10T10:31:53.660Z,13.20
2019-04-10T10:34:22.672Z,13.20
2019-04-10T10:36:53.160Z,13.30
2019-04-10T10:39:21.661Z,13.30
2019-04-10T10:41:51.069Z,13.20
2019-04-10T10:44:19.690Z,13.30
2019-04-10T10:46:48.184Z,13.30
2019-04-10T10:49:18.034Z,13.20
2019-04-10T10:51:46.794Z,13.20
2019-04-10T10:54:15.233Z,13.30
2019-04-10T10:56:44.707Z,13.40
2019-04-10T10:59:13.445Z,13.40
2019-04-10T11:01:42.229Z,13.40
2019-04-10T11:04:10.920Z,13.40
2019-04-10T11:06:51.424Z,13.40
2019-04-10T11:09:12.685Z,13.40
2019-04-10T11:11:41.145Z,13.40
2019-04-10T11:14:10.890Z,13.40
2019-04-10T11:16:39.427Z,13.50
2019-04-10T11:19:08.204Z,13.50
2019-04-10T11:21:36.928Z,13.40
2019-04-10T11:24:05.372Z,13.40
2019-04-10T11:26:34.047Z,13.40
2019-04-10T11:29:03.721Z,13.40
2019-04-10T11:31:33.286Z,13.50
2019-04-10T11:34:02.824Z,13.50
2019-04-10T11:36:32.355Z,13.50
2019-04-10T11:39:11.910Z,13.50
2019-04-10T11:41:31.622Z,13.50
2019-04-10T11:44:02.832Z,13.60
2019-04-10T11:46:32.251Z,13.70
2019-04-10T11:49:00.979Z,13.80
2019-04-10T11:51:31.577Z,13.80
2019-04-10T11:54:02.236Z,13.90
2019-04-10T11:56:30.408Z,13.90
2019-04-10T11:58:59.261Z,14.00
2019-04-10T12:01:28.601Z,13.90
2019-04-10T12:03:58.455Z,13.90
2019-04-10T12:06:29.864Z,14.00
2019-04-10T12:11:28.853Z,14.10
2019-04-10T12:13:57.418Z,14.10
2019-04-10T12:16:25.847Z,14.20
2019-04-10T12:18:55.042Z,14.30
2019-04-10T12:21:24.390Z,14.30
2019-04-10T12:23:53.478Z,14.40
2019-04-10T12:26:22.031Z,14.30
2019-04-10T12:28:50.484Z,14.30
2019-04-10T12:31:19.702Z,14.40
2019-04-10T12:33:48.328Z,14.40
2019-04-10T12:36:16.883Z,14.40
2019-04-10T12:38:45.327Z,14.50
2019-04-10T12:41:13.755Z,14.60
2019-04-10T12:43:43.173Z,14.80
2019-04-10T12:46:12.797Z,14.90
2019-04-10T12:48:41.267Z,14.90
2019-04-10T12:51:09.883Z,14.90
2019-04-10T12:53:38.340Z,14.90
2019-04-10T12:56:06.784Z,14.90
2019-04-10T12:58:35.212Z,15.00
2019-04-10T13:01:04.696Z,14.80
2019-04-10T13:03:39.015Z,14.90
2019-04-10T13:06:07.572Z,15.00
2019-04-10T13:08:52.596Z,15.30
2019-04-10T13:11:06.144Z,15.40
2019-04-10T13:13:35.756Z,15.50
2019-04-10T13:16:04.549Z,15.50
2019-04-10T13:18:32.981Z,15.40
2019-04-10T13:21:02.104Z,15.30
2019-04-10T13:23:30.932Z,14.90
2019-04-10T13:26:01.733Z,14.70
2019-04-10T13:28:29.734Z,14.50
2019-04-10T13:30:59.603Z,14.40
2019-04-10T13:33:28.890Z,14.40
2019-04-10T13:35:57.660Z,14.50
2019-04-10T13:38:31.870Z,14.40
2019-04-10T13:40:56.446Z,14.40
2019-04-10T13:43:25.555Z,14.40
2019-04-10T13:45:54.274Z,14.40
2019-04-10T13:48:22.934Z,14.40
2019-04-10T13:50:51.448Z,14.40
2019-04-10T13:53:19.881Z,14.20
2019-04-10T13:55:48.628Z,14.10
2019-04-10T13:58:17.303Z,14.00
2019-04-10T14:00:47.028Z,13.90
2019-04-10T14:03:16.472Z,13.80
2019-04-10T14:05:46.156Z,13.60
2019-04-10T14:08:15.073Z,13.50
2019-04-10T14:10:44.507Z,13.40
2019-04-10T14:13:13.671Z,13.40
2019-04-10T14:15:42.284Z,13.40
2019-04-10T14:23:24.360Z,13.30
2019-04-10T14:25:54.460Z,13.20
2019-04-10T14:28:24.926Z,13.20
2019-04-10T14:30:55.736Z,13.20
2019-04-10T14:33:24.351Z,13.10
2019-04-10T14:35:53.664Z,13.10
2019-04-10T14:38:23.209Z,13.00
2019-04-10T14:40:51.894Z,13.10
2019-04-10T14:43:20.887Z,13.00
2019-04-10T14:45:49.985Z,12.90
2019-04-10T14:48:20.235Z,12.90
2019-04-10T14:50:49.181Z,12.80
2019-04-10T14:53:17.648Z,12.80
2019-04-10T14:55:46.179Z,12.80
2019-04-10T14:58:23.981Z,12.80
2019-04-10T15:00:46.856Z,12.70
2019-04-10T15:03:16.113Z,12.70
2019-04-10T15:05:49.989Z,12.70
2019-04-10T15:08:15.559Z,12.70
2019-04-10T15:10:44.306Z,12.70
2019-04-10T15:13:17.512Z,12.60
2019-04-10T15:15:42.983Z,12.60
2019-04-10T15:18:11.483Z,12.60
2019-04-10T15:20:39.935Z,12.60
2019-04-10T15:23:08.381Z,12.60
2019-04-10T15:25:37.471Z,12.60
2019-04-10T15:28:06.401Z,12.60
2019-04-10T15:30:35.049Z,12.50
2019-04-10T15:33:04.517Z,12.50
2019-04-10T15:35:33.084Z,12.40
2019-04-10T15:38:02.007Z,12.40
2019-04-10T15:40:30.645Z,12.40
2019-04-10T15:42:59.068Z,12.40
2019-04-10T15:45:28.087Z,12.40
2019-04-10T15:47:58.447Z,12.30
2019-04-10T15:50:26.930Z,12.30
2019-04-10T15:52:55.816Z,12.30
2019-04-10T15:55:25.755Z,12.30
2019-04-10T15:57:57.810Z,12.20
2019-04-10T16:00:25.341Z,12.20
2019-04-10T16:02:55.278Z,12.10
2019-04-10T16:05:23.906Z,12.10
2019-04-10T16:07:53.104Z,12.00
2019-04-10T16:10:32.914Z,12.00
2019-04-10T16:13:19.918Z,12.00
2019-04-10T16:15:48.767Z,12.00
2019-04-10T16:18:19.004Z,12.00
2019-04-10T16:20:50.665Z,11.90
2019-04-10T16:23:28.843Z,11.90
2019-04-10T16:25:56.781Z,11.90
2019-04-10T16:28:25.204Z,11.90
2019-04-10T16:30:53.663Z,11.80
2019-04-10T16:33:23.142Z,11.80
2019-04-10T16:35:52.618Z,11.80
2019-04-10T16:38:21.314Z,11.70
2019-04-10T16:40:50.002Z,11.70
2019-04-10T16:43:18.483Z,11.70
2019-04-10T16:45:47.037Z,11.70
2019-04-10T16:48:16.837Z,11.70
2019-04-10T16:50:45.725Z,11.70
2019-04-10T16:53:14.141Z,11.70
2019-04-10T16:55:43.101Z,11.60
2019-04-10T16:58:11.759Z,11.60
2019-04-10T17:00:40.221Z,11.60
2019-04-10T17:03:09.303Z,11.60
2019-04-10T17:05:38.217Z,11.60
2019-04-10T17:08:07.757Z,11.60
2019-04-10T17:10:36.606Z,11.60
2019-04-10T17:13:07.262Z,11.60
2019-04-10T17:15:36.368Z,11.50
2019-04-10T17:18:04.892Z,11.50
2019-04-10T17:20:33.348Z,11.50
2019-04-10T17:23:02.585Z,11.50
2019-04-10T17:25:31.089Z,11.50
2019-04-10T17:27:59.771Z,11.50
2019-04-10T17:30:29.442Z,11.50
2019-04-10T17:32:57.955Z,11.50
2019-04-10T17:35:27.596Z,11.50
2019-04-10T17:37:56.212Z,11.60
2019-04-10T17:40:31.845Z,11.50
2019-04-10T17:42:54.930Z,11.50
2019-04-10T17:45:25.515Z,11.50
2019-04-10T17:47:55.266Z,11.50
2019-04-10T17:50:24.746Z,11.50
2019-04-10T17:52:53.500Z,11.40
2019-04-10T17:55:23.093Z,11.40
2019-04-10T17:57:54.380Z,11.40
2019-04-10T18:00:31.263Z,11.40
2019-04-10T18:03:01.115Z,11.40
2019-04-10T18:05:30.764Z,11.30
2019-04-10T18:07:59.482Z,11.30
2019-04-10T18:10:41.150Z,11.30
2019-04-10T18:12:59.137Z,11.30
2019-04-10T18:15:28.249Z,11.30
2019-04-10T18:17:57.642Z,11.30
2019-04-10T18:20:26.289Z,11.30
2019-04-10T18:22:55.368Z,11.30
2019-04-10T18:25:24.221Z,11.30
2019-04-10T18:27:52.684Z,11.30
2019-04-10T18:30:21.658Z,11.30
2019-04-10T18:32:50.202Z,11.30
2019-04-10T18:35:18.628Z,11.30
2019-04-10T18:37:48.030Z,11.20
2019-04-10T18:40:17.777Z,11.20
2019-04-10T18:42:47.392Z,11.20
2019-04-10T18:45:15.840Z,11.20
2019-04-10T18:47:44.560Z,11.10
2019-04-10T18:50:13.291Z,11.10
2019-04-10T18:52:41.751Z,11.10
2019-04-10T18:55:10.319Z,11.10
2019-04-10T18:57:39.015Z,11.10
2019-04-10T19:00:12.274Z,11.10
2019-04-10T19:02:51.398Z,11.10
2019-04-10T19:05:21.532Z,11.00
2019-04-10T19:07:50.273Z,11.00
2019-04-10T19:10:19.851Z,11.00
2019-04-10T19:12:48.792Z,11.00
2019-04-10T19:15:17.325Z,11.00
2019-04-10T19:17:46.824Z,11.00
2019-04-10T19:20:17.862Z,11.00
2019-04-10T19:22:46.667Z,11.00
2019-04-10T19:25:16.434Z,10.90
2019-04-10T19:27:44.975Z,10.90
2019-04-10T19:30:15.785Z,10.90
2019-04-10T19:32:44.249Z,10.90
2019-04-10T19:35:12.983Z,10.90
2019-04-10T19:37:42.675Z,10.90
2019-04-10T19:40:11.758Z,10.90
2019-04-10T19:42:40.212Z,10.90
2019-04-10T19:45:09.839Z,10.90
2019-04-10T19:47:38.861Z,10.90
2019-04-10T19:50:07.460Z,10.90
2019-04-10T19:52:36.208Z,10.80
2019-04-10T19:55:05.473Z,10.80
2019-04-10T19:57:33.935Z,10.80
2019-04-10T20:00:02.369Z,10.80
2019-04-10T20:02:31.052Z,10.80
2019-04-10T20:04:59.520Z,10.80
2019-04-10T20:07:28.832Z,10.80
2019-04-10T20:09:57.475Z,10.80
2019-04-10T20:12:26.768Z,10.70
2019-04-10T20:14:55.367Z,10.70
2019-04-10T20:17:24.082Z,10.70
2019-04-10T20:19:55.172Z,10.60
2019-04-10T20:22:23.160Z,10.60
2019-04-10T20:24:51.922Z,10.60
2019-04-10T20:27:20.532Z,10.60
2019-04-10T20:29:49.272Z,10.60
2019-04-10T20:32:17.744Z,10.70
2019-04-10T20:34:46.159Z,10.60
2019-04-10T20:37:14.621Z,10.70
2019-04-10T20:39:43.242Z,10.60
2019-04-10T20:42:11.912Z,10.60
2019-04-10T20:44:40.844Z,10.60
2019-04-10T20:47:09.464Z,10.60
2019-04-10T20:49:38.459Z,10.60
2019-04-10T20:52:08.250Z,10.60
2019-04-10T20:54:37.183Z,10.60
2019-04-10T20:57:06.480Z,10.60
2019-04-10T20:59:36.962Z,10.60
2019-04-10T21:02:06.279Z,10.60
2019-04-10T21:04:34.786Z,10.60
2019-04-10T21:07:03.248Z,10.60
2019-04-10T21:09:32.155Z,10.70
2019-04-10T21:12:06.833Z,10.60
2019-04-10T21:14:31.755Z,10.70
2019-04-10T21:17:00.475Z,10.70
2019-04-10T21:19:29.088Z,10.70
2019-04-10T21:21:57.594Z,10.70
2019-04-10T21:24:27.347Z,10.70
2019-04-10T21:26:56.895Z,10.70
2019-04-10T21:29:44.197Z,10.70
2019-04-10T21:32:23.935Z,10.70
2019-04-10T21:34:53.445Z,10.70
2019-04-10T21:37:22.288Z,10.80
2019-04-10T21:39:50.780Z,10.70
2019-04-10T21:42:23.511Z,10.70
2019-04-10T21:44:49.748Z,10.80
2019-04-10T21:47:19.381Z,10.80
2019-04-10T21:49:48.467Z,10.70
2019-04-10T21:52:16.981Z,10.70
2019-04-10T21:54:51.218Z,10.70
2019-04-10T21:57:16.073Z,10.80
2019-04-10T21:59:45.483Z,10.80
2019-04-10T22:02:15.260Z,10.80
2019-04-10T22:04:44.029Z,10.70
2019-04-10T22:07:30.721Z,10.70
2019-04-10T22:10:13.083Z,10.70
2019-04-10T22:12:46.715Z,10.70
2019-04-10T22:15:14.723Z,10.60
2019-04-10T22:17:44.563Z,10.60
2019-04-10T22:20:13.057Z,10.60
2019-04-10T22:22:41.585Z,10.60
2019-04-10T22:25:11.033Z,10.60
2019-04-10T22:27:39.623Z,10.60
2019-04-10T22:30:08.679Z,10.60
2019-04-10T22:32:37.149Z,10.60
2019-04-10T22:35:07.015Z,10.60
2019-04-10T22:37:35.674Z,10.60
2019-04-10T22:40:06.581Z,10.60
2019-04-10T22:42:41.646Z,10.60
2019-04-10T22:45:27.937Z,10.60
2019-04-10T22:47:56.985Z,10.60
2019-04-10T22:50:27.351Z,10.60
2019-04-10T22:52:56.779Z,10.60
2019-04-10T22:55:26.028Z,10.60
2019-04-10T22:57:54.859Z,10.50
2019-04-10T23:00:30.945Z,10.50
2019-04-10T23:03:00.686Z,10.40
2019-04-10T23:05:29.627Z,10.40
2019-04-10T23:07:59.078Z,10.40
2019-04-10T23:10:28.761Z,10.40
2019-04-10T23:13:01.429Z,10.50
2019-04-10T23:15:27.699Z,10.40
2019-04-10T23:17:57.254Z,10.40
2019-04-10T23:20:26.015Z,10.40
2019-04-10T23:22:54.774Z,10.40
2019-04-10T23:25:24.561Z,10.30
2019-04-10T23:27:55.149Z,10.30
2019-04-10T23:30:24.528Z,10.30
2019-04-10T23:32:53.545Z,10.30
2019-04-10T23:35:22.209Z,10.30
2019-04-10T23:37:51.254Z,10.30
2019-04-10T23:40:20.906Z,10.30
2019-04-10T23:43:01.240Z,10.30
2019-04-10T23:45:19.828Z,10.30
2019-04-10T23:47:48.718Z,10.30
2019-04-10T23:50:18.446Z,10.40
2019-04-10T23:52:47.915Z,10.40
2019-04-10T23:55:17.686Z,10.40
2019-04-10T23:57:46.414Z,10.40
